sensor_id;sensor_type;location;lat;lon;timestamp;pressure;altitude;pressure_sealevel;temperature;humidity
43770;BME280;6597;52.218;9.882;2023-04-08T00:01:24;101430.19;;;5.56;100.00
43770;BME280;6597;52.218;9.882;2023-04-08T00:03:52;101434.53;;;5.56;100.00
43770;BME280;6597;52.218;9.882;2023-04-08T00:06:19;101433.66;;;5.55;100.00
43770;BME280;6597;52.218;9.882;2023-04-08T00:08:45;101434.53;;;5.56;100.00
43770;BME280;6597;52.218;9.882;2023-04-08T00:11:12;101440.63;;;5.53;100.00
43770;BME280;6597;52.218;9.882;2023-04-08T00:13:38;101437.16;;;5.53;100.00
43770;BME280;6597;52.218;9.882;2023-04-08T00:16:05;101428.47;;;5.48;100.00
43770;BME280;6597;52.218;9.882;2023-04-08T00:18:32;101428.47;;;5.48;100.00
43770;BME280;6597;52.218;9.882;2023-04-08T00:21:00;101426.75;;;5.45;100.00
43770;BME280;6597;52.218;9.882;2023-04-08T00:23:26;101433.66;;;5.49;100.00
43770;BME280;6597;52.218;9.882;2023-04-08T00:25:53;101428.47;;;5.49;100.00
43770;BME280;6597;52.218;9.882;2023-04-08T00:28:19;101430.22;;;5.43;100.00
43770;BME280;6597;52.218;9.882;2023-04-08T00:30:46;101427.63;;;5.43;100.00
43770;BME280;6597;52.218;9.882;2023-04-08T00:33:12;101425.91;;;5.39;100.00
43770;BME280;6597;52.218;9.882;2023-04-08T00:35:39;101426.75;;;5.39;100.00
43770;BME280;6597;52.218;9.882;2023-04-08T00:38:07;101433.72;;;5.34;100.00
43770;BME280;6597;52.218;9.882;2023-04-08T00:40:34;101432.00;;;5.33;100.00
43770;BME280;6597;52.218;9.882;2023-04-08T00:43:00;101426.81;;;5.25;100.00
43770;BME280;6597;52.218;9.882;2023-04-08T00:45:27;101424.22;;;5.25;100.00
43770;BME280;6597;52.218;9.882;2023-04-08T00:47:53;101425.97;;;5.22;100.00
43770;BME280;6597;52.218;9.882;2023-04-08T00:50:20;101427.69;;;5.12;100.00
43770;BME280;6597;52.218;9.882;2023-04-08T00:52:47;101421.63;;;5.06;100.00
43770;BME280;6597;52.218;9.882;2023-04-08T00:55:15;101418.19;;;5.00;100.00
43770;BME280;6597;52.218;9.882;2023-04-08T00:57:41;101413.88;;;4.89;100.00
43770;BME280;6597;52.218;9.882;2023-04-08T01:00:09;101426.88;;;4.96;100.00
43770;BME280;6597;52.218;9.882;2023-04-08T01:02:43;101423.41;;;4.90;100.00
43770;BME280;6597;52.218;9.882;2023-04-08T01:05:13;101424.25;;;4.83;100.00
43770;BME280;6597;52.218;9.882;2023-04-08T01:07:44;101432.94;;;4.85;100.00
43770;BME280;6597;52.218;9.882;2023-04-08T01:10:16;101431.19;;;4.84;100.00
43770;BME280;6597;52.218;9.882;2023-04-08T01:12:48;101429.47;;;4.80;100.00
43770;BME280;6597;52.218;9.882;2023-04-08T01:15:16;101431.19;;;4.78;100.00
43770;BME280;6597;52.218;9.882;2023-04-08T01:17:43;101420.81;;;4.79;100.00
43770;BME280;6597;52.218;9.882;2023-04-08T01:20:12;101429.47;;;4.74;100.00
43770;BME280;6597;52.218;9.882;2023-04-08T01:22:54;101445.09;;;4.75;100.00
43770;BME280;6597;52.218;9.882;2023-04-08T01:25:28;101441.59;;;4.78;100.00
43770;BME280;6597;52.218;9.882;2023-04-08T01:27:58;101437.28;;;4.77;100.00
43770;BME280;6597;52.218;9.882;2023-04-08T01:30:27;101438.13;;;4.79;100.00
43770;BME280;6597;52.218;9.882;2023-04-08T01:32:56;101431.19;;;4.79;100.00
43770;BME280;6597;52.218;9.882;2023-04-08T01:35:25;101432.06;;;4.80;100.00
43770;BME280;6597;52.218;9.882;2023-04-08T01:37:52;101433.81;;;4.78;100.00
43770;BME280;6597;52.218;9.882;2023-04-08T01:40:21;101429.47;;;4.80;100.00
43770;BME280;6597;52.218;9.882;2023-04-08T01:42:48;101423.41;;;4.79;100.00
43770;BME280;6597;52.218;9.882;2023-04-08T01:45:17;101421.69;;;4.75;100.00
43770;BME280;6597;52.218;9.882;2023-04-08T01:47:44;101417.34;;;4.77;100.00
43770;BME280;6597;52.218;9.882;2023-04-08T01:50:12;101411.25;;;4.80;100.00
43770;BME280;6597;52.218;9.882;2023-04-08T01:52:40;101406.91;;;4.82;100.00
43770;BME280;6597;52.218;9.882;2023-04-08T01:55:11;101415.59;;;4.90;100.00
43770;BME280;6597;52.218;9.882;2023-04-08T01:57:38;101409.53;;;4.91;100.00
43770;BME280;6597;52.218;9.882;2023-04-08T02:00:07;101412.13;;;4.94;100.00
43770;BME280;6597;52.218;9.882;2023-04-08T02:02:51;101412.13;;;4.91;100.00
43770;BME280;6597;52.218;9.882;2023-04-08T02:05:18;101415.59;;;4.97;100.00
43770;BME280;6597;52.218;9.882;2023-04-08T02:07:46;101414.72;;;4.98;100.00
43770;BME280;6597;52.218;9.882;2023-04-08T02:10:13;101418.19;;;5.00;100.00
43770;BME280;6597;52.218;9.882;2023-04-08T02:12:40;101426.84;;;5.04;100.00
43770;BME280;6597;52.218;9.882;2023-04-08T02:15:09;101428.59;;;5.02;100.00
43770;BME280;6597;52.218;9.882;2023-04-08T02:17:42;101427.72;;;5.06;100.00
43770;BME280;6597;52.218;9.882;2023-04-08T02:20:15;101424.25;;;5.04;100.00
43770;BME280;6597;52.218;9.882;2023-04-08T02:22:47;101427.72;;;5.03;100.00
43770;BME280;6597;52.218;9.882;2023-04-08T02:25:16;101420.78;;;5.05;100.00
43770;BME280;6597;52.218;9.882;2023-04-08T02:27:44;101423.38;;;5.08;100.00
43770;BME280;6597;52.218;9.882;2023-04-08T02:30:14;101422.50;;;5.06;100.00
43770;BME280;6597;52.218;9.882;2023-04-08T02:32:41;101425.09;;;5.06;100.00
43770;BME280;6597;52.218;9.882;2023-04-08T02:35:12;101419.03;;;5.09;100.00
43770;BME280;6597;52.218;9.882;2023-04-08T02:37:40;101421.63;;;5.13;100.00
43770;BME280;6597;52.218;9.882;2023-04-08T02:40:22;101423.34;;;5.16;100.00
43770;BME280;6597;52.218;9.882;2023-04-08T02:42:49;101424.22;;;5.16;100.00
43770;BME280;6597;52.218;9.882;2023-04-08T02:45:16;101418.13;;;5.17;100.00
43770;BME280;6597;52.218;9.882;2023-04-08T02:47:42;101427.69;;;5.23;100.00
43770;BME280;6597;52.218;9.882;2023-04-08T02:50:09;101428.53;;;5.19;100.00
43770;BME280;6597;52.218;9.882;2023-04-08T02:52:37;101429.41;;;5.15;100.00
43770;BME280;6597;52.218;9.882;2023-04-08T02:55:05;101434.63;;;5.19;100.00
43770;BME280;6597;52.218;9.882;2023-04-08T02:57:34;101432.88;;;5.17;100.00
43770;BME280;6597;52.218;9.882;2023-04-08T03:00:01;101433.75;;;5.19;100.00
43770;BME280;6597;52.218;9.882;2023-04-08T03:02:28;101442.41;;;5.19;100.00
43770;BME280;6597;52.218;9.882;2023-04-08T03:04:55;101434.63;;;5.24;100.00
43770;BME280;6597;52.218;9.882;2023-04-08T03:07:21;101442.44;;;5.24;100.00
43770;BME280;6597;52.218;9.882;2023-04-08T03:09:49;101446.78;;;5.25;100.00
43770;BME280;6597;52.218;9.882;2023-04-08T03:12:16;101449.34;;;5.29;100.00
43770;BME280;6597;52.218;9.882;2023-04-08T03:14:43;101445.03;;;5.27;100.00
43770;BME280;6597;52.218;9.882;2023-04-08T03:17:09;101448.50;;;5.27;100.00
43770;BME280;6597;52.218;9.882;2023-04-08T03:19:36;101449.38;;;5.23;100.00
43770;BME280;6597;52.218;9.882;2023-04-08T03:22:02;101452.84;;;5.22;100.00
43770;BME280;6597;52.218;9.882;2023-04-08T03:24:29;101454.59;;;5.22;100.00
43770;BME280;6597;52.218;9.882;2023-04-08T03:26:56;101452.84;;;5.24;100.00
43770;BME280;6597;52.218;9.882;2023-04-08T03:29:23;101455.44;;;5.24;100.00
43770;BME280;6597;52.218;9.882;2023-04-08T03:31:50;101453.72;;;5.26;100.00
43770;BME280;6597;52.218;9.882;2023-04-08T03:34:16;101450.25;;;5.25;100.00
43770;BME280;6597;52.218;9.882;2023-04-08T03:36:43;101458.06;;;5.25;100.00
43770;BME280;6597;52.218;9.882;2023-04-08T03:39:09;101454.59;;;5.20;100.00
43770;BME280;6597;52.218;9.882;2023-04-08T03:41:36;101452.84;;;5.22;100.00
43770;BME280;6597;52.218;9.882;2023-04-08T03:44:04;101446.78;;;5.20;100.00
43770;BME280;6597;52.218;9.882;2023-04-08T03:46:30;101457.16;;;5.19;100.00
43770;BME280;6597;52.218;9.882;2023-04-08T03:48:57;101454.59;;;5.20;100.00
43770;BME280;6597;52.218;9.882;2023-04-08T03:51:24;101454.59;;;5.20;100.00
43770;BME280;6597;52.218;9.882;2023-04-08T03:53:50;101446.75;;;5.19;100.00
43770;BME280;6597;52.218;9.882;2023-04-08T03:56:17;101447.66;;;5.21;100.00
43770;BME280;6597;52.218;9.882;2023-04-08T03:58:43;101447.66;;;5.22;100.00
43770;BME280;6597;52.218;9.882;2023-04-08T04:01:11;101449.38;;;5.22;100.00
43770;BME280;6597;52.218;9.882;2023-04-08T04:03:37;101447.63;;;5.19;100.00
43770;BME280;6597;52.218;9.882;2023-04-08T04:06:04;101448.53;;;5.21;100.00
43770;BME280;6597;52.218;9.882;2023-04-08T04:08:31;101451.97;;;5.17;100.00
43770;BME280;6597;52.218;9.882;2023-04-08T04:10:57;101463.25;;;5.16;100.00
43770;BME280;6597;52.218;9.882;2023-04-08T04:13:24;101455.47;;;5.21;100.00
43770;BME280;6597;52.218;9.882;2023-04-08T04:18:23;101461.53;;;5.23;100.00
43770;BME280;6597;52.218;9.882;2023-04-08T04:20:50;101468.47;;;5.21;100.00
43770;BME280;6597;52.218;9.882;2023-04-08T04:23:16;101467.59;;;5.23;100.00
43770;BME280;6597;52.218;9.882;2023-04-08T04:25:43;101467.59;;;5.22;100.00
43770;BME280;6597;52.218;9.882;2023-04-08T04:28:09;101465.00;;;5.20;100.00
43770;BME280;6597;52.218;9.882;2023-04-08T04:30:36;101471.91;;;5.20;100.00
43770;BME280;6597;52.218;9.882;2023-04-08T04:33:03;101473.66;;;5.15;100.00
43770;BME280;6597;52.218;9.882;2023-04-08T04:35:31;101477.13;;;5.18;100.00
43770;BME280;6597;52.218;9.882;2023-04-08T04:37:57;101488.41;;;5.19;100.00
43770;BME280;6597;52.218;9.882;2023-04-08T04:40:24;101484.94;;;5.18;100.00
43770;BME280;6597;52.218;9.882;2023-04-08T04:42:51;101481.47;;;5.19;100.00
43770;BME280;6597;52.218;9.882;2023-04-08T04:45:17;101489.28;;;5.18;100.00
43770;BME280;6597;52.218;9.882;2023-04-08T04:47:44;101488.44;;;5.20;100.00
43770;BME280;6597;52.218;9.882;2023-04-08T04:50:11;101498.84;;;5.22;100.00
43770;BME280;6597;52.218;9.882;2023-04-08T04:52:38;101498.81;;;5.19;100.00
43770;BME280;6597;52.218;9.882;2023-04-08T04:55:06;101499.69;;;5.18;100.00
43770;BME280;6597;52.218;9.882;2023-04-08T04:57:33;101504.06;;;5.20;100.00
43770;BME280;6597;52.218;9.882;2023-04-08T04:59:59;101498.84;;;5.22;100.00
43770;BME280;6597;52.218;9.882;2023-04-08T05:02:26;101511.84;;;5.22;100.00
43770;BME280;6597;52.218;9.882;2023-04-08T05:04:52;101510.97;;;5.20;100.00
43770;BME280;6597;52.218;9.882;2023-04-08T05:07:20;101512.69;;;5.16;100.00
43770;BME280;6597;52.218;9.882;2023-04-08T05:09:48;101510.13;;;5.22;100.00
43770;BME280;6597;52.218;9.882;2023-04-08T05:12:14;101517.91;;;5.27;100.00
43770;BME280;6597;52.218;9.882;2023-04-08T05:14:41;101513.56;;;5.30;100.00
43770;BME280;6597;52.218;9.882;2023-04-08T05:17:07;101514.44;;;5.28;100.00
43770;BME280;6597;52.218;9.882;2023-04-08T05:19:34;101516.19;;;5.29;100.00
43770;BME280;6597;52.218;9.882;2023-04-08T05:22:00;101516.19;;;5.27;100.00
43770;BME280;6597;52.218;9.882;2023-04-08T05:24:27;101515.31;;;5.27;100.00
43770;BME280;6597;52.218;9.882;2023-04-08T05:26:55;101519.66;;;5.26;100.00
43770;BME280;6597;52.218;9.882;2023-04-08T05:29:22;101516.19;;;5.21;100.00
43770;BME280;6597;52.218;9.882;2023-04-08T05:31:48;101518.78;;;5.18;100.00
43770;BME280;6597;52.218;9.882;2023-04-08T05:34:15;101529.19;;;5.12;100.00
43770;BME280;6597;52.218;9.882;2023-04-08T05:36:47;101522.25;;;5.11;100.00
43770;BME280;6597;52.218;9.882;2023-04-08T05:39:16;101521.38;;;5.12;100.00
43770;BME280;6597;52.218;9.882;2023-04-08T05:41:42;101530.06;;;5.13;100.00
43770;BME280;6597;52.218;9.882;2023-04-08T05:44:11;101523.97;;;5.14;100.00
43770;BME280;6597;52.218;9.882;2023-04-08T05:46:37;101523.97;;;5.14;100.00
43770;BME280;6597;52.218;9.882;2023-04-08T05:49:04;101523.97;;;5.15;100.00
43770;BME280;6597;52.218;9.882;2023-04-08T05:51:31;101532.66;;;5.17;100.00
43770;BME280;6597;52.218;9.882;2023-04-08T05:53:57;101530.06;;;5.22;100.00
43770;BME280;6597;52.218;9.882;2023-04-08T05:56:24;101537.00;;;5.20;100.00
43770;BME280;6597;52.218;9.882;2023-04-08T05:58:50;101538.75;;;5.21;100.00
43770;BME280;6597;52.218;9.882;2023-04-08T06:01:18;101537.88;;;5.23;100.00
43770;BME280;6597;52.218;9.882;2023-04-08T06:03:45;101547.41;;;5.27;100.00
43770;BME280;6597;52.218;9.882;2023-04-08T06:06:12;101543.94;;;5.27;100.00
43770;BME280;6597;52.218;9.882;2023-04-08T06:08:38;101542.22;;;5.29;100.00
43770;BME280;6597;52.218;9.882;2023-04-08T06:11:05;101543.06;;;5.36;100.00
43770;BME280;6597;52.218;9.882;2023-04-08T06:13:32;101543.06;;;5.34;100.00
43770;BME280;6597;52.218;9.882;2023-04-08T06:16:09;101542.19;;;5.34;100.00
43770;BME280;6597;52.218;9.882;2023-04-08T06:18:37;101550.00;;;5.34;100.00
43770;BME280;6597;52.218;9.882;2023-04-08T06:21:03;101550.00;;;5.38;100.00
43770;BME280;6597;52.218;9.882;2023-04-08T06:23:30;101555.22;;;5.37;100.00
43770;BME280;6597;52.218;9.882;2023-04-08T06:25:57;101556.06;;;5.39;100.00
43770;BME280;6597;52.218;9.882;2023-04-08T06:28:24;101557.78;;;5.47;100.00
43770;BME280;6597;52.218;9.882;2023-04-08T06:30:50;101548.25;;;5.49;100.00
43770;BME280;6597;52.218;9.882;2023-04-08T06:33:17;101557.78;;;5.52;100.00
43770;BME280;6597;52.218;9.882;2023-04-08T06:35:44;101558.66;;;5.57;100.00
43770;BME280;6597;52.218;9.882;2023-04-08T06:38:11;101563.00;;;5.61;100.00
43770;BME280;6597;52.218;9.882;2023-04-08T06:40:37;101567.34;;;5.63;100.00
43770;BME280;6597;52.218;9.882;2023-04-08T06:43:04;101563.88;;;5.63;100.00
43770;BME280;6597;52.218;9.882;2023-04-08T06:45:36;101564.75;;;5.60;100.00
43770;BME280;6597;52.218;9.882;2023-04-08T06:48:03;101573.41;;;5.61;100.00
43770;BME280;6597;52.218;9.882;2023-04-08T06:50:30;101578.63;;;5.55;100.00
43770;BME280;6597;52.218;9.882;2023-04-08T06:52:58;101581.25;;;5.58;100.00
43770;BME280;6597;52.218;9.882;2023-04-08T06:55:25;101580.38;;;5.54;100.00
43770;BME280;6597;52.218;9.882;2023-04-08T06:57:52;101585.56;;;5.50;100.00
43770;BME280;6597;52.218;9.882;2023-04-08T07:00:18;101588.16;;;5.50;100.00
43770;BME280;6597;52.218;9.882;2023-04-08T07:02:45;101589.91;;;5.48;100.00
43770;BME280;6597;52.218;9.882;2023-04-08T07:05:12;101591.63;;;5.50;100.00
43770;BME280;6597;52.218;9.882;2023-04-08T07:07:38;101589.06;;;5.53;100.00
43770;BME280;6597;52.218;9.882;2023-04-08T07:10:07;101594.25;;;5.55;100.00
43770;BME280;6597;52.218;9.882;2023-04-08T07:12:33;101599.47;;;5.53;100.00
43770;BME280;6597;52.218;9.882;2023-04-08T07:15:00;101598.59;;;5.59;100.00
43770;BME280;6597;52.218;9.882;2023-04-08T07:17:26;101593.38;;;5.63;100.00
43770;BME280;6597;52.218;9.882;2023-04-08T07:19:53;101595.97;;;5.71;100.00
43770;BME280;6597;52.218;9.882;2023-04-08T07:22:20;101595.09;;;5.72;100.00
43770;BME280;6597;52.218;9.882;2023-04-08T07:24:46;101600.28;;;5.78;100.00
43770;BME280;6597;52.218;9.882;2023-04-08T07:27:15;101591.59;;;5.79;100.00
43770;BME280;6597;52.218;9.882;2023-04-08T07:29:42;101595.06;;;5.81;100.00
43770;BME280;6597;52.218;9.882;2023-04-08T07:32:08;101602.03;;;5.87;100.00
43770;BME280;6597;52.218;9.882;2023-04-08T07:34:35;101614.22;;;5.92;100.00
43770;BME280;6597;52.218;9.882;2023-04-08T07:37:01;101604.66;;;5.93;100.00
43770;BME280;6597;52.218;9.882;2023-04-08T07:39:28;101606.38;;;5.99;100.00
43770;BME280;6597;52.218;9.882;2023-04-08T07:41:55;101607.25;;;5.98;100.00
43770;BME280;6597;52.218;9.882;2023-04-08T07:44:25;101621.13;;;6.01;100.00
43770;BME280;6597;52.218;9.882;2023-04-08T07:46:51;101613.31;;;5.98;100.00
43770;BME280;6597;52.218;9.882;2023-04-08T07:49:18;101618.53;;;6.01;100.00
43770;BME280;6597;52.218;9.882;2023-04-08T07:51:44;101616.78;;;6.03;100.00
43770;BME280;6597;52.218;9.882;2023-04-08T07:54:11;101615.91;;;6.06;100.00
43770;BME280;6597;52.218;9.882;2023-04-08T07:56:41;101618.47;;;6.12;100.00
43770;BME280;6597;52.218;9.882;2023-04-08T07:59:09;101607.19;;;6.13;100.00
43770;BME280;6597;52.218;9.882;2023-04-08T08:01:36;101623.66;;;6.30;100.00
43770;BME280;6597;52.218;9.882;2023-04-08T08:04:03;101627.97;;;6.36;100.00
43770;BME280;6597;52.218;9.882;2023-04-08T08:06:30;101623.56;;;6.45;100.00
43770;BME280;6597;52.218;9.882;2023-04-08T08:08:57;101626.16;;;6.54;100.00
43770;BME280;6597;52.218;9.882;2023-04-08T08:11:24;101616.59;;;6.53;100.00
43770;BME280;6597;52.218;9.882;2023-04-08T08:13:52;101627.88;;;6.62;100.00
43770;BME280;6597;52.218;9.882;2023-04-08T08:16:18;101629.66;;;6.52;100.00
43770;BME280;6597;52.218;9.882;2023-04-08T08:18:47;101637.47;;;6.53;100.00
43770;BME280;6597;52.218;9.882;2023-04-08T08:21:13;101644.44;;;6.51;100.00
43770;BME280;6597;52.218;9.882;2023-04-08T08:23:40;101642.69;;;6.53;100.00
43770;BME280;6597;52.218;9.882;2023-04-08T08:26:08;101643.53;;;6.59;100.00
43770;BME280;6597;52.218;9.882;2023-04-08T08:28:35;101653.97;;;6.59;100.00
43770;BME280;6597;52.218;9.882;2023-04-08T08:31:02;101660.91;;;6.60;100.00
43770;BME280;6597;52.218;9.882;2023-04-08T08:33:30;101640.91;;;6.60;100.00
43770;BME280;6597;52.218;9.882;2023-04-08T08:35:58;101652.22;;;6.58;100.00
43770;BME280;6597;52.218;9.882;2023-04-08T08:38:25;101658.34;;;6.53;100.00
43770;BME280;6597;52.218;9.882;2023-04-08T08:40:53;101663.56;;;6.50;100.00
43770;BME280;6597;52.218;9.882;2023-04-08T08:43:20;101663.56;;;6.44;100.00
43770;BME280;6597;52.218;9.882;2023-04-08T08:45:47;101663.56;;;6.46;100.00
43770;BME280;6597;52.218;9.882;2023-04-08T08:48:14;101658.34;;;6.43;100.00
43770;BME280;6597;52.218;9.882;2023-04-08T08:50:40;101653.19;;;6.35;100.00
43770;BME280;6597;52.218;9.882;2023-04-08T08:53:08;101654.88;;;6.45;100.00
43770;BME280;6597;52.218;9.882;2023-04-08T08:55:35;101660.06;;;6.50;100.00
43770;BME280;6597;52.218;9.882;2023-04-08T08:58:02;101666.16;;;6.57;100.00
43770;BME280;6597;52.218;9.882;2023-04-08T09:00:30;101676.53;;;6.69;100.00
43770;BME280;6597;52.218;9.882;2023-04-08T09:03:13;101675.63;;;6.74;100.00
43770;BME280;6597;52.218;9.882;2023-04-08T09:05:46;101667.84;;;6.67;100.00
43770;BME280;6597;52.218;9.882;2023-04-08T09:08:28;101674.78;;;6.71;100.00
43770;BME280;6597;52.218;9.882;2023-04-08T09:10:55;101677.38;;;6.69;100.00
43770;BME280;6597;52.218;9.882;2023-04-08T09:13:22;101674.78;;;6.68;100.00
43770;BME280;6597;52.218;9.882;2023-04-08T09:16:03;101680.88;;;6.67;100.00
43770;BME280;6597;52.218;9.882;2023-04-08T09:18:30;101685.22;;;6.68;100.00
43770;BME280;6597;52.218;9.882;2023-04-08T09:20:58;101686.09;;;6.70;100.00
43770;BME280;6597;52.218;9.882;2023-04-08T09:23:40;101694.78;;;6.72;100.00
43770;BME280;6597;52.218;9.882;2023-04-08T09:26:08;101698.25;;;6.74;100.00
43770;BME280;6597;52.218;9.882;2023-04-08T09:28:35;101693.88;;;6.77;100.00
43770;BME280;6597;52.218;9.882;2023-04-08T09:31:17;101700.84;;;6.72;100.00
43770;BME280;6597;52.218;9.882;2023-04-08T09:33:44;101705.16;;;6.79;100.00
43770;BME280;6597;52.218;9.882;2023-04-08T09:36:13;101703.44;;;6.78;100.00
43770;BME280;6597;52.218;9.882;2023-04-08T09:38:41;101706.06;;;6.74;100.00
43770;BME280;6597;52.218;9.882;2023-04-08T09:41:07;101710.44;;;6.69;100.00
43770;BME280;6597;52.218;9.882;2023-04-08T09:43:35;101710.44;;;6.69;100.00
43770;BME280;6597;52.218;9.882;2023-04-08T09:46:07;101712.16;;;6.74;100.00
43770;BME280;6597;52.218;9.882;2023-04-08T09:48:39;101713.03;;;6.73;100.00
43770;BME280;6597;52.218;9.882;2023-04-08T09:51:11;101721.72;;;6.75;100.00
43770;BME280;6597;52.218;9.882;2023-04-08T09:53:46;101714.72;;;6.82;100.00
43770;BME280;6597;52.218;9.882;2023-04-08T09:56:13;101706.91;;;6.82;100.00
43770;BME280;6597;52.218;9.882;2023-04-08T09:58:45;101706.91;;;6.85;100.00
43770;BME280;6597;52.218;9.882;2023-04-08T10:01:20;101710.38;;;6.85;100.00
43770;BME280;6597;52.218;9.882;2023-04-08T10:03:51;101705.16;;;6.87;100.00
43770;BME280;6597;52.218;9.882;2023-04-08T10:06:19;101706.03;;;6.84;100.00
43770;BME280;6597;52.218;9.882;2023-04-08T10:08:48;101701.63;;;6.94;100.00
43770;BME280;6597;52.218;9.882;2023-04-08T10:11:15;101712.91;;;7.04;100.00
43770;BME280;6597;52.218;9.882;2023-04-08T10:13:42;101721.59;;;7.03;100.00
43770;BME280;6597;52.218;9.882;2023-04-08T10:16:22;101721.59;;;7.06;100.00
43770;BME280;6597;52.218;9.882;2023-04-08T10:18:51;101719.84;;;7.06;100.00
43770;BME280;6597;52.218;9.882;2023-04-08T10:21:33;101718.97;;;7.04;100.00
43770;BME280;6597;52.218;9.882;2023-04-08T10:24:02;101705.09;;;6.99;100.00
43770;BME280;6597;52.218;9.882;2023-04-08T10:26:33;101723.34;;;7.01;100.00
43770;BME280;6597;52.218;9.882;2023-04-08T10:29:30;101725.03;;;7.11;100.00
43770;BME280;6597;52.218;9.882;2023-04-08T10:31:58;101725.03;;;7.15;100.00
43770;BME280;6597;52.218;9.882;2023-04-08T10:34:25;101711.09;;;7.12;100.00
43770;BME280;6597;52.218;9.882;2023-04-08T10:36:54;101715.44;;;7.17;100.00
43770;BME280;6597;52.218;9.882;2023-04-08T10:39:24;101704.94;;;7.27;100.00
43770;BME280;6597;52.218;9.882;2023-04-08T10:41:51;101704.91;;;7.31;100.00
43770;BME280;6597;52.218;9.882;2023-04-08T10:44:19;101708.34;;;7.38;100.00
43770;BME280;6597;52.218;9.882;2023-04-08T10:46:46;101711.00;;;7.30;100.00
43770;BME280;6597;52.218;9.882;2023-04-08T10:49:15;101708.38;;;7.32;100.00
43770;BME280;6597;52.218;9.882;2023-04-08T10:51:42;101724.94;;;7.29;100.00
43770;BME280;6597;52.218;9.882;2023-04-08T10:54:10;101715.38;;;7.27;100.00
43770;BME280;6597;52.218;9.882;2023-04-08T10:56:44;101726.72;;;7.23;100.00
43770;BME280;6597;52.218;9.882;2023-04-08T10:59:12;101722.31;;;7.31;100.00
43770;BME280;6597;52.218;9.882;2023-04-08T11:01:44;101726.69;;;7.27;100.00
43770;BME280;6597;52.218;9.882;2023-04-08T11:04:16;101719.72;;;7.29;100.00
43770;BME280;6597;52.218;9.882;2023-04-08T11:06:44;101731.03;;;7.30;100.00
43770;BME280;6597;52.218;9.882;2023-04-08T11:09:13;101733.66;;;7.30;100.00
43770;BME280;6597;52.218;9.882;2023-04-08T11:11:44;101731.06;;;7.25;100.00
43770;BME280;6597;52.218;9.882;2023-04-08T11:14:11;101731.03;;;7.30;100.00
43770;BME280;6597;52.218;9.882;2023-04-08T11:16:38;101732.72;;;7.35;100.00
43770;BME280;6597;52.218;9.882;2023-04-08T11:19:06;101739.72;;;7.33;100.00
43770;BME280;6597;52.218;9.882;2023-04-08T11:21:35;101746.69;;;7.33;100.00
43770;BME280;6597;52.218;9.882;2023-04-08T11:24:08;101734.41;;;7.42;100.00
43770;BME280;6597;52.218;9.882;2023-04-08T11:26:38;101730.94;;;7.43;100.00
43770;BME280;6597;52.218;9.882;2023-04-08T11:29:08;101728.31;;;7.48;100.00
43770;BME280;6597;52.218;9.882;2023-04-08T11:31:40;101730.00;;;7.57;100.00
43770;BME280;6597;52.218;9.882;2023-04-08T11:34:07;101737.78;;;7.64;100.00
43770;BME280;6597;52.218;9.882;2023-04-08T11:36:34;101745.59;;;7.66;100.00
43770;BME280;6597;52.218;9.882;2023-04-08T11:39:06;101741.28;;;7.59;100.00
43770;BME280;6597;52.218;9.882;2023-04-08T11:41:37;101740.47;;;7.47;100.00
43770;BME280;6597;52.218;9.882;2023-04-08T11:44:06;101736.22;;;7.33;100.00
43770;BME280;6597;52.218;9.882;2023-04-08T11:46:33;101730.09;;;7.38;100.00
43770;BME280;6597;52.218;9.882;2023-04-08T11:49:02;101757.91;;;7.47;100.00
43770;BME280;6597;52.218;9.882;2023-04-08T11:51:31;101743.22;;;7.31;100.00
43770;BME280;6597;52.218;9.882;2023-04-08T11:53:58;101745.78;;;7.35;100.00
43770;BME280;6597;52.218;9.882;2023-04-08T11:56:28;101741.41;;;7.42;100.00
43770;BME280;6597;52.218;9.882;2023-04-08T11:59:14;101743.09;;;7.47;100.00
43770;BME280;6597;52.218;9.882;2023-04-08T12:01:41;101737.88;;;7.44;100.00
43770;BME280;6597;52.218;9.882;2023-04-08T12:04:10;101748.28;;;7.55;100.00
43770;BME280;6597;52.218;9.882;2023-04-08T12:06:40;101749.13;;;7.59;100.00
43770;BME280;6597;52.218;9.882;2023-04-08T12:09:30;101744.00;;;7.48;100.00
43770;BME280;6597;52.218;9.882;2023-04-08T12:11:56;101751.81;;;7.45;100.00
43770;BME280;6597;52.218;9.882;2023-04-08T12:14:24;101750.13;;;7.38;100.00
43770;BME280;6597;52.218;9.882;2023-04-08T12:16:50;101753.59;;;7.40;100.00
43770;BME280;6597;52.218;9.882;2023-04-08T12:19:17;101757.09;;;7.36;100.00
43770;BME280;6597;52.218;9.882;2023-04-08T12:24:27;101753.63;;;7.34;100.00
43770;BME280;6597;52.218;9.882;2023-04-08T12:26:53;101756.28;;;7.29;100.00
43770;BME280;6597;52.218;9.882;2023-04-08T12:29:21;101751.91;;;7.33;100.00
43770;BME280;6597;52.218;9.882;2023-04-08T12:31:49;101751.88;;;7.39;100.00
43770;BME280;6597;52.218;9.882;2023-04-08T12:34:15;101749.22;;;7.43;100.00
43770;BME280;6597;52.218;9.882;2023-04-08T12:36:42;101759.66;;;7.46;100.00
43770;BME280;6597;52.218;9.882;2023-04-08T12:39:09;101759.66;;;7.45;100.00
43770;BME280;6597;52.218;9.882;2023-04-08T12:41:36;101750.06;;;7.47;100.00
43770;BME280;6597;52.218;9.882;2023-04-08T12:44:03;101757.00;;;7.57;100.00
43770;BME280;6597;52.218;9.882;2023-04-08T12:46:29;101749.97;;;7.65;100.00
43770;BME280;6597;52.218;9.882;2023-04-08T12:48:57;101747.25;;;7.77;100.00
43770;BME280;6597;52.218;9.882;2023-04-08T12:51:24;101748.00;;;7.92;100.00
43770;BME280;6597;52.218;9.882;2023-04-08T12:53:51;101741.13;;;7.80;100.00
43770;BME280;6597;52.218;9.882;2023-04-08T12:56:17;101744.59;;;7.84;100.00
43770;BME280;6597;52.218;9.882;2023-04-08T12:58:45;101727.13;;;7.87;100.00
43770;BME280;6597;52.218;9.882;2023-04-08T13:01:12;101739.97;;;8.11;100.00
43770;BME280;6597;52.218;9.882;2023-04-08T13:03:38;101740.72;;;8.27;100.00
43770;BME280;6597;52.218;9.882;2023-04-08T13:06:07;101739.78;;;8.31;99.49
43770;BME280;6597;52.218;9.882;2023-04-08T13:08:34;101741.53;;;8.31;98.23
43770;BME280;6597;52.218;9.882;2023-04-08T13:11:01;101733.72;;;8.28;99.38